UNEE/KEJ METAR and TAF weather

Enter ICAO airport designator
Station Type Date Time Source
UNEE METAR 2019/12/06 02:00 UTC NOAA

UNEE 060200Z 12005MPS CAVOK 00/M01 Q1010 R23/690532 NOSIG RMK QFE734


Station Type Date Time Source
UNEE Decoded METAR 2019/12/06 02:00 UTC NOAA

Kemerovo, Russia (UNEE) 55-19-48N 086-04-48E
Dec 05, 2019 - 09:00 PM EST / 2019.12.06 0200 UTC
Wind: from the ESE (120 degrees) at 11 MPH (10 KT):0
Visibility: greater than 7 mile(s):0
Temperature: 32 F (0 C)
Windchill: 23 F (-5 C):1
Dew Point: 30 F (-1 C)
Relative Humidity: 92%
Pressure (altimeter): 29.83 in. Hg (1010 hPa)
ob: UNEE 060200Z 12005MPS CAVOK 00/M01 Q1010 R23/690532 NOSIG RMK QFE734
cycle: 2

Station Type Date Time Source
UNEE TAF 2019/12/05 21:21 UTC NOAA

TAF UNEE 052000Z 0521/0621 15003G08MPS 9999 SCT020
TEMPO 0522/0608 19008G13MPS 0800 +SHSNRA BKN002 BKN011CB
BECMG 0608/0610 23008G14MPS
TEMPO 0608/0618 3100 -SHSN BKN002 BKN011CB

Example: see airport list